sensor_id;sensor_type;location;lat;lon;timestamp;noise_LAeq;noise_LA_min;noise_LA_max;noise_LA01;noise_LA95
51665;Laerm;37751;52.408;12.536;2023-02-12T10:43:50;63.08;49.76;73.15;;
51665;Laerm;37751;52.408;12.536;2023-02-12T10:46:22;65.52;50.03;93.82;;
51665;Laerm;37751;52.408;12.536;2023-02-12T10:48:54;63.87;51.25;74.65;;
51665;Laerm;37751;52.408;12.536;2023-02-12T10:52:04;62.47;50.78;77.97;;
51665;Laerm;37751;52.408;12.536;2023-02-12T10:54:48;63.07;48.38;72.26;;
51665;Laerm;37751;52.408;12.536;2023-02-12T10:57:27;63.02;53.35;72.60;;
51665;Laerm;37751;52.408;12.536;2023-02-12T11:00:36;62.21;46.23;74.22;;
51665;Laerm;37751;52.408;12.536;2023-02-12T11:05:44;63.32;49.92;81.28;;
51665;Laerm;37751;52.408;12.536;2023-02-12T11:08:47;62.03;47.95;71.89;;
51665;Laerm;37751;52.408;12.536;2023-02-12T11:11:48;63.08;47.30;72.29;;
51665;Laerm;37751;52.408;12.536;2023-02-12T11:14:19;67.42;42.46;96.94;;
51665;Laerm;37751;52.408;12.536;2023-02-12T11:16:58;64.28;48.42;80.76;;
51665;Laerm;37751;52.408;12.536;2023-02-12T11:19:37;61.46;45.47;71.29;;
51665;Laerm;37751;52.408;12.536;2023-02-12T11:22:52;63.38;43.09;79.78;;
51665;Laerm;37751;52.408;12.536;2023-02-12T11:26:00;64.33;48.55;78.79;;
51665;Laerm;37751;52.408;12.536;2023-02-12T11:29:22;62.05;49.42;73.24;;
51665;Laerm;37751;52.408;12.536;2023-02-12T11:32:22;61.96;47.91;76.67;;
51665;Laerm;37751;52.408;12.536;2023-02-12T11:35:26;63.29;46.75;74.37;;
51665;Laerm;37751;52.408;12.536;2023-02-12T11:38:03;63.23;46.75;72.80;;
51665;Laerm;37751;52.408;12.536;2023-02-12T11:40:36;61.32;48.46;72.44;;
51665;Laerm;37751;52.408;12.536;2023-02-12T11:43:14;62.51;48.74;71.54;;
51665;Laerm;37751;52.408;12.536;2023-02-12T11:46:26;61.24;46.39;72.10;;
51665;Laerm;37751;52.408;12.536;2023-02-12T11:49:24;63.00;49.18;76.15;;
51665;Laerm;37751;52.408;12.536;2023-02-12T11:52:20;61.82;49.74;72.09;;
51665;Laerm;37751;52.408;12.536;2023-02-12T11:54:51;63.65;48.61;74.06;;
51665;Laerm;37751;52.408;12.536;2023-02-12T11:57:46;63.16;48.14;75.29;;
51665;Laerm;37751;52.408;12.536;2023-02-12T12:00:35;63.05;44.49;73.75;;
51665;Laerm;37751;52.408;12.536;2023-02-12T12:06:45;62.31;51.18;73.45;;
51665;Laerm;37751;52.408;12.536;2023-02-12T12:10:41;62.29;44.86;73.13;;
51665;Laerm;37751;52.408;12.536;2023-02-12T12:12:50;59.85;44.39;71.29;;
51665;Laerm;37751;52.408;12.536;2023-02-12T12:15:29;63.22;48.54;70.99;;
51665;Laerm;37751;52.408;12.536;2023-02-12T12:27:54;62.81;50.73;75.06;;
51665;Laerm;37751;52.408;12.536;2023-02-12T12:34:24;62.07;45.23;72.28;;
51665;Laerm;37751;52.408;12.536;2023-02-12T12:56:41;61.32;47.91;72.91;;
51665;Laerm;37751;52.408;12.536;2023-02-12T13:03:04;63.09;48.10;71.90;;
51665;Laerm;37751;52.408;12.536;2023-02-12T13:06:15;62.66;49.98;72.48;;
51665;Laerm;37751;52.408;12.536;2023-02-12T13:21:51;63.09;50.94;74.63;;
51665;Laerm;37751;52.408;12.536;2023-02-12T13:27:39;61.90;46.77;70.74;;
51665;Laerm;37751;52.408;12.536;2023-02-12T13:33:17;62.31;50.02;74.43;;
51665;Laerm;37751;52.408;12.536;2023-02-12T13:36:34;62.20;47.10;71.20;;
51665;Laerm;37751;52.408;12.536;2023-02-12T13:39:31;63.74;50.55;73.14;;
51665;Laerm;37751;52.408;12.536;2023-02-12T13:45:28;63.12;45.35;74.51;;
51665;Laerm;37751;52.408;12.536;2023-02-12T13:48:23;63.46;48.38;71.20;;
51665;Laerm;37751;52.408;12.536;2023-02-12T13:57:18;62.39;50.28;71.93;;
51665;Laerm;37751;52.408;12.536;2023-02-12T14:03:45;63.30;51.00;74.05;;
51665;Laerm;37751;52.408;12.536;2023-02-12T14:06:18;62.28;45.69;73.44;;
51665;Laerm;37751;52.408;12.536;2023-02-12T14:09:09;63.81;51.84;72.99;;
51665;Laerm;37751;52.408;12.536;2023-02-12T14:11:57;61.50;42.75;74.03;;
51665;Laerm;37751;52.408;12.536;2023-02-12T14:14:40;63.19;48.81;73.03;;
51665;Laerm;37751;52.408;12.536;2023-02-12T14:20:36;62.89;47.02;73.73;;
51665;Laerm;37751;52.408;12.536;2023-02-12T14:23:27;62.33;49.95;72.18;;
51665;Laerm;37751;52.408;12.536;2023-02-12T14:26:24;61.84;44.19;73.66;;
51665;Laerm;37751;52.408;12.536;2023-02-12T14:37:38;61.95;47.40;73.29;;
51665;Laerm;37751;52.408;12.536;2023-02-12T14:45:38;61.99;45.62;72.53;;
51665;Laerm;37751;52.408;12.536;2023-02-12T14:49:00;65.54;45.83;89.10;;
51665;Laerm;37751;52.408;12.536;2023-02-12T14:52:17;63.02;51.05;72.91;;
51665;Laerm;37751;52.408;12.536;2023-02-12T14:55:26;60.96;49.28;71.72;;
51665;Laerm;37751;52.408;12.536;2023-02-12T14:58:32;62.94;48.36;73.54;;
51665;Laerm;37751;52.408;12.536;2023-02-12T15:01:53;60.68;45.19;70.42;;
51665;Laerm;37751;52.408;12.536;2023-02-12T15:06:15;62.21;49.12;71.76;;
51665;Laerm;37751;52.408;12.536;2023-02-12T15:09:10;63.26;48.02;78.59;;
51665;Laerm;37751;52.408;12.536;2023-02-12T15:12:20;62.16;48.04;72.86;;
51665;Laerm;37751;52.408;12.536;2023-02-12T15:15:38;60.85;45.76;71.18;;
51665;Laerm;37751;52.408;12.536;2023-02-12T15:21:39;63.55;50.59;73.19;;
51665;Laerm;37751;52.408;12.536;2023-02-12T15:24:35;62.05;48.18;72.46;;
51665;Laerm;37751;52.408;12.536;2023-02-12T15:54:32;64.30;49.32;77.36;;
51665;Laerm;37751;52.408;12.536;2023-02-12T16:06:46;63.22;50.08;71.84;;
51665;Laerm;37751;52.408;12.536;2023-02-12T16:10:22;61.65;50.30;72.51;;
51665;Laerm;37751;52.408;12.536;2023-02-12T16:13:03;62.39;49.49;72.68;;
51665;Laerm;37751;52.408;12.536;2023-02-12T16:15:43;62.22;49.55;72.07;;
51665;Laerm;37751;52.408;12.536;2023-02-12T16:18:26;61.85;49.18;71.96;;
51665;Laerm;37751;52.408;12.536;2023-02-12T16:21:22;62.50;49.74;73.03;;
51665;Laerm;37751;52.408;12.536;2023-02-12T16:23:52;62.24;49.84;70.94;;
51665;Laerm;37751;52.408;12.536;2023-02-12T16:26:27;61.04;49.40;73.52;;
51665;Laerm;37751;52.408;12.536;2023-02-12T16:28:58;61.87;51.02;71.91;;
51665;Laerm;37751;52.408;12.536;2023-02-12T16:31:26;61.89;51.27;75.19;;
51665;Laerm;37751;52.408;12.536;2023-02-12T16:34:01;63.20;50.40;72.52;;
51665;Laerm;37751;52.408;12.536;2023-02-12T16:36:46;62.11;49.87;73.07;;
51665;Laerm;37751;52.408;12.536;2023-02-12T16:42:15;62.53;46.51;73.33;;
51665;Laerm;37751;52.408;12.536;2023-02-12T16:44:47;62.68;47.64;72.01;;
51665;Laerm;37751;52.408;12.536;2023-02-12T16:47:21;63.14;45.51;71.23;;
51665;Laerm;37751;52.408;12.536;2023-02-12T16:49:59;64.01;51.12;85.59;;
51665;Laerm;37751;52.408;12.536;2023-02-12T16:52:39;63.12;47.59;70.98;;
51665;Laerm;37751;52.408;12.536;2023-02-12T16:55:14;63.15;47.45;73.07;;
51665;Laerm;37751;52.408;12.536;2023-02-12T16:57:43;64.08;48.40;72.88;;
51665;Laerm;37751;52.408;12.536;2023-02-12T17:00:15;61.16;48.59;74.69;;
51665;Laerm;37751;52.408;12.536;2023-02-12T17:02:44;62.45;51.54;70.64;;
51665;Laerm;37751;52.408;12.536;2023-02-12T17:05:18;64.60;49.16;76.48;;
51665;Laerm;37751;52.408;12.536;2023-02-12T17:07:56;65.76;51.81;86.40;;
51665;Laerm;37751;52.408;12.536;2023-02-12T17:10:25;63.74;51.08;73.51;;
51665;Laerm;37751;52.408;12.536;2023-02-12T17:12:59;65.73;50.28;84.92;;
51665;Laerm;37751;52.408;12.536;2023-02-12T17:15:51;62.44;47.38;72.50;;
51665;Laerm;37751;52.408;12.536;2023-02-12T17:18:43;63.23;47.66;74.32;;
51665;Laerm;37751;52.408;12.536;2023-02-12T17:21:24;61.53;47.78;72.57;;
51665;Laerm;37751;52.408;12.536;2023-02-12T17:24:14;63.58;51.10;71.73;;
51665;Laerm;37751;52.408;12.536;2023-02-12T17:26:44;63.56;47.23;72.29;;
51665;Laerm;37751;52.408;12.536;2023-02-12T17:29:17;62.70;50.70;72.28;;
51665;Laerm;37751;52.408;12.536;2023-02-12T17:31:53;62.61;53.10;73.03;;
51665;Laerm;37751;52.408;12.536;2023-02-12T17:34:27;61.15;48.74;73.13;;
51665;Laerm;37751;52.408;12.536;2023-02-12T17:37:00;62.18;52.89;71.10;;
51665;Laerm;37751;52.408;12.536;2023-02-12T17:39:30;64.50;51.42;76.42;;
51665;Laerm;37751;52.408;12.536;2023-02-12T17:42:02;62.71;47.30;72.69;;
51665;Laerm;37751;52.408;12.536;2023-02-12T17:44:34;62.49;51.75;72.79;;
51665;Laerm;37751;52.408;12.536;2023-02-12T17:47:04;61.43;50.59;70.90;;
51665;Laerm;37751;52.408;12.536;2023-02-12T17:49:37;63.60;55.54;71.76;;
51665;Laerm;37751;52.408;12.536;2023-02-12T17:52:25;60.49;44.34;73.37;;
51665;Laerm;37751;52.408;12.536;2023-02-12T17:54:52;63.36;48.44;78.60;;
51665;Laerm;37751;52.408;12.536;2023-02-12T17:57:25;63.74;49.28;75.26;;
51665;Laerm;37751;52.408;12.536;2023-02-12T17:59:57;61.42;48.90;80.65;;
51665;Laerm;37751;52.408;12.536;2023-02-12T18:02:28;63.99;52.10;79.53;;
51665;Laerm;37751;52.408;12.536;2023-02-12T18:04:56;63.09;52.66;74.47;;
51665;Laerm;37751;52.408;12.536;2023-02-12T18:07:24;63.54;51.51;75.40;;
51665;Laerm;37751;52.408;12.536;2023-02-12T18:09:55;62.75;48.14;73.93;;
51665;Laerm;37751;52.408;12.536;2023-02-12T18:12:40;60.62;45.51;71.53;;
51665;Laerm;37751;52.408;12.536;2023-02-12T18:15:44;61.47;44.44;71.65;;
51665;Laerm;37751;52.408;12.536;2023-02-12T18:18:28;62.26;46.23;75.03;;
51665;Laerm;37751;52.408;12.536;2023-02-12T18:21:31;63.36;52.32;72.46;;
51665;Laerm;37751;52.408;12.536;2023-02-12T18:24:12;60.16;48.28;71.68;;
51665;Laerm;37751;52.408;12.536;2023-02-12T18:26:43;62.38;50.63;73.41;;
51665;Laerm;37751;52.408;12.536;2023-02-12T18:29:24;62.66;47.55;72.84;;
51665;Laerm;37751;52.408;12.536;2023-02-12T18:32:32;62.87;50.11;77.30;;
51665;Laerm;37751;52.408;12.536;2023-02-12T18:35:09;62.39;51.38;73.58;;
51665;Laerm;37751;52.408;12.536;2023-02-12T18:37:50;61.43;49.45;74.57;;
51665;Laerm;37751;52.408;12.536;2023-02-12T18:40:29;62.69;50.27;70.53;;
51665;Laerm;37751;52.408;12.536;2023-02-12T18:46:49;61.41;44.81;74.32;;
51665;Laerm;37751;52.408;12.536;2023-02-12T18:49:39;60.88;45.97;71.56;;
51665;Laerm;37751;52.408;12.536;2023-02-12T18:52:24;62.85;46.14;73.92;;
51665;Laerm;37751;52.408;12.536;2023-02-12T18:54:52;61.76;51.44;74.52;;
51665;Laerm;37751;52.408;12.536;2023-02-12T18:57:22;60.41;49.29;70.71;;
51665;Laerm;37751;52.408;12.536;2023-02-12T19:00:19;61.70;43.09;75.66;;
51665;Laerm;37751;52.408;12.536;2023-02-12T19:03:41;60.83;48.20;72.88;;
51665;Laerm;37751;52.408;12.536;2023-02-12T19:06:49;64.48;47.69;79.52;;
51665;Laerm;37751;52.408;12.536;2023-02-12T19:09:25;59.68;47.07;68.64;;
51665;Laerm;37751;52.408;12.536;2023-02-12T19:13:15;62.18;51.01;76.53;;
51665;Laerm;37751;52.408;12.536;2023-02-12T19:16:16;61.71;49.23;73.14;;
51665;Laerm;37751;52.408;12.536;2023-02-12T19:19:08;60.78;50.63;72.03;;
51665;Laerm;37751;52.408;12.536;2023-02-12T19:21:46;63.01;50.50;78.79;;
51665;Laerm;37751;52.408;12.536;2023-02-12T19:24:19;63.72;48.10;72.11;;
51665;Laerm;37751;52.408;12.536;2023-02-12T19:26:51;61.65;48.84;73.58;;
51665;Laerm;37751;52.408;12.536;2023-02-12T19:29:27;61.54;51.08;72.03;;
51665;Laerm;37751;52.408;12.536;2023-02-12T19:32:06;64.29;49.74;81.50;;
51665;Laerm;37751;52.408;12.536;2023-02-12T19:34:43;61.36;47.73;70.98;;
51665;Laerm;37751;52.408;12.536;2023-02-12T19:37:26;60.68;47.66;73.97;;
51665;Laerm;37751;52.408;12.536;2023-02-12T19:40:06;62.10;46.45;72.59;;
51665;Laerm;37751;52.408;12.536;2023-02-12T19:42:34;62.29;50.04;75.44;;
51665;Laerm;37751;52.408;12.536;2023-02-12T19:45:02;60.72;44.09;76.14;;
51665;Laerm;37751;52.408;12.536;2023-02-12T19:47:30;60.44;47.38;71.11;;
51665;Laerm;37751;52.408;12.536;2023-02-12T19:49:58;59.33;44.72;70.98;;
51665;Laerm;37751;52.408;12.536;2023-02-12T19:52:28;58.64;45.39;71.10;;
51665;Laerm;37751;52.408;12.536;2023-02-12T19:54:59;61.69;45.97;73.07;;
51665;Laerm;37751;52.408;12.536;2023-02-12T19:57:27;59.91;45.95;74.48;;
51665;Laerm;37751;52.408;12.536;2023-02-12T20:00:00;59.87;44.94;72.80;;
51665;Laerm;37751;52.408;12.536;2023-02-12T20:02:33;59.63;45.39;72.35;;
51665;Laerm;37751;52.408;12.536;2023-02-12T20:05:04;60.03;43.71;73.86;;
51665;Laerm;37751;52.408;12.536;2023-02-12T20:07:36;60.02;47.18;70.90;;
51665;Laerm;37751;52.408;12.536;2023-02-12T20:10:09;59.63;48.52;72.27;;
51665;Laerm;37751;52.408;12.536;2023-02-12T20:12:40;60.19;47.78;72.21;;
51665;Laerm;37751;52.408;12.536;2023-02-12T20:15:18;56.99;45.97;68.38;;
51665;Laerm;37751;52.408;12.536;2023-02-12T20:18:05;59.58;46.30;69.47;;
51665;Laerm;37751;52.408;12.536;2023-02-12T20:20:41;61.37;47.10;73.09;;
51665;Laerm;37751;52.408;12.536;2023-02-12T20:23:19;58.38;42.06;72.27;;
51665;Laerm;37751;52.408;12.536;2023-02-12T20:25:46;58.72;44.24;71.51;;
51665;Laerm;37751;52.408;12.536;2023-02-12T20:28:17;61.10;48.67;70.49;;
51665;Laerm;37751;52.408;12.536;2023-02-12T20:30:45;59.60;44.94;72.61;;
51665;Laerm;37751;52.408;12.536;2023-02-12T20:33:14;55.52;44.34;70.75;;
51665;Laerm;37751;52.408;12.536;2023-02-12T20:35:56;58.42;44.09;72.64;;
51665;Laerm;37751;52.408;12.536;2023-02-12T20:38:33;60.17;47.13;72.34;;
51665;Laerm;37751;52.408;12.536;2023-02-12T20:41:22;59.93;45.54;76.41;;
51665;Laerm;37751;52.408;12.536;2023-02-12T20:43:50;54.43;43.29;69.31;;
51665;Laerm;37751;52.408;12.536;2023-02-12T20:46:21;57.52;44.86;69.46;;
51665;Laerm;37751;52.408;12.536;2023-02-12T20:48:53;57.85;44.14;70.22;;
51665;Laerm;37751;52.408;12.536;2023-02-12T20:51:27;61.73;44.77;80.07;;
51665;Laerm;37751;52.408;12.536;2023-02-12T20:54:03;53.82;42.96;67.61;;
51665;Laerm;37751;52.408;12.536;2023-02-12T20:56:43;57.70;44.14;70.08;;
51665;Laerm;37751;52.408;12.536;2023-02-12T20:59:17;59.42;44.68;73.27;;
51665;Laerm;37751;52.408;12.536;2023-02-12T21:01:53;58.41;43.98;73.12;;
51665;Laerm;37751;52.408;12.536;2023-02-12T21:04:24;60.13;47.05;70.07;;
51665;Laerm;37751;52.408;12.536;2023-02-12T21:06:55;60.30;47.02;75.16;;
51665;Laerm;37751;52.408;12.536;2023-02-12T21:09:26;59.79;45.03;71.74;;
51665;Laerm;37751;52.408;12.536;2023-02-12T21:11:54;58.37;44.44;72.25;;
51665;Laerm;37751;52.408;12.536;2023-02-12T21:14:25;58.80;46.07;72.12;;
51665;Laerm;37751;52.408;12.536;2023-02-12T21:16:54;59.15;45.89;70.79;;
51665;Laerm;37751;52.408;12.536;2023-02-12T21:19:33;59.44;47.33;71.43;;
51665;Laerm;37751;52.408;12.536;2023-02-12T21:22:03;59.12;46.17;71.61;;
51665;Laerm;37751;52.408;12.536;2023-02-12T21:24:31;54.28;44.09;68.49;;
51665;Laerm;37751;52.408;12.536;2023-02-12T21:27:03;55.76;42.30;67.03;;
51665;Laerm;37751;52.408;12.536;2023-02-12T21:29:36;54.95;42.14;67.22;;
51665;Laerm;37751;52.408;12.536;2023-02-12T21:32:11;57.38;44.90;73.61;;
51665;Laerm;37751;52.408;12.536;2023-02-12T21:34:44;56.44;42.68;72.61;;
51665;Laerm;37751;52.408;12.536;2023-02-12T21:37:25;55.39;42.06;73.53;;
51665;Laerm;37751;52.408;12.536;2023-02-12T21:39:53;54.76;42.14;67.75;;
51665;Laerm;37751;52.408;12.536;2023-02-12T21:42:24;58.73;41.43;79.47;;
51665;Laerm;37751;52.408;12.536;2023-02-12T21:44:54;59.07;44.81;72.97;;
51665;Laerm;37751;52.408;12.536;2023-02-12T21:47:22;56.84;43.76;71.70;;
51665;Laerm;37751;52.408;12.536;2023-02-12T21:49:52;58.07;44.39;74.93;;
51665;Laerm;37751;52.408;12.536;2023-02-12T21:52:23;55.02;42.38;71.85;;
51665;Laerm;37751;52.408;12.536;2023-02-12T21:54:52;54.71;43.03;66.75;;
51665;Laerm;37751;52.408;12.536;2023-02-12T21:57:30;54.30;42.22;67.35;;
51665;Laerm;37751;52.408;12.536;2023-02-12T22:00:06;57.36;43.47;72.76;;
51665;Laerm;37751;52.408;12.536;2023-02-12T22:02:40;54.59;43.71;70.83;;
51665;Laerm;37751;52.408;12.536;2023-02-12T22:05:07;57.87;43.71;78.43;;
51665;Laerm;37751;52.408;12.536;2023-02-12T22:07:50;55.13;42.38;72.20;;
51665;Laerm;37751;52.408;12.536;2023-02-12T22:10:26;57.17;43.03;72.83;;
51665;Laerm;37751;52.408;12.536;2023-02-12T22:12:54;53.23;43.35;69.58;;
51665;Laerm;37751;52.408;12.536;2023-02-12T22:15:32;51.19;41.80;70.22;;
51665;Laerm;37751;52.408;12.536;2023-02-12T22:18:05;56.46;43.22;71.92;;
51665;Laerm;37751;52.408;12.536;2023-02-12T22:20:43;53.10;43.16;65.81;;
51665;Laerm;37751;52.408;12.536;2023-02-12T22:23:14;54.35;44.19;68.41;;
51665;Laerm;37751;52.408;12.536;2023-02-12T22:25:44;51.00;42.82;64.86;;
51665;Laerm;37751;52.408;12.536;2023-02-12T22:28:15;51.75;42.89;70.76;;
51665;Laerm;37751;52.408;12.536;2023-02-12T22:30:45;50.38;42.30;65.26;;
51665;Laerm;37751;52.408;12.536;2023-02-12T22:33:19;58.18;43.71;74.44;;
51665;Laerm;37751;52.408;12.536;2023-02-12T22:35:48;53.83;43.93;65.43;;
51665;Laerm;37751;52.408;12.536;2023-02-12T22:38:16;54.58;44.29;69.64;;
51665;Laerm;37751;52.408;12.536;2023-02-12T22:40:44;51.82;42.68;66.03;;
51665;Laerm;37751;52.408;12.536;2023-02-12T22:43:14;50.51;41.43;68.54;;
51665;Laerm;37751;52.408;12.536;2023-02-12T22:45:45;56.62;42.22;74.56;;
51665;Laerm;37751;52.408;12.536;2023-02-12T22:48:15;53.13;41.13;70.93;;
51665;Laerm;37751;52.408;12.536;2023-02-12T22:50:46;50.93;40.46;65.67;;
51665;Laerm;37751;52.408;12.536;2023-02-12T22:53:16;56.00;41.98;73.12;;
51665;Laerm;37751;52.408;12.536;2023-02-12T22:55:47;56.62;41.62;74.80;;
51665;Laerm;37751;52.408;12.536;2023-02-12T22:58:20;49.56;39.81;66.32;;
51665;Laerm;37751;52.408;12.536;2023-02-12T23:00:54;54.80;41.13;71.90;;
51665;Laerm;37751;52.408;12.536;2023-02-12T23:03:27;53.04;42.14;69.31;;
51665;Laerm;37751;52.408;12.536;2023-02-12T23:06:00;49.18;39.95;62.93;;
51665;Laerm;37751;52.408;12.536;2023-02-12T23:08:38;53.56;41.53;72.36;;
51665;Laerm;37751;52.408;12.536;2023-02-12T23:11:30;51.13;41.62;69.85;;
51665;Laerm;37751;52.408;12.536;2023-02-12T23:14:07;45.31;42.22;62.22;;
51665;Laerm;37751;52.408;12.536;2023-02-12T23:16:54;51.99;42.53;68.67;;
51665;Laerm;37751;52.408;12.536;2023-02-12T23:19:34;44.47;40.68;58.87;;
51665;Laerm;37751;52.408;12.536;2023-02-12T23:22:15;57.12;40.46;74.30;;
51665;Laerm;37751;52.408;12.536;2023-02-12T23:24:43;49.43;41.80;65.64;;
51665;Laerm;37751;52.408;12.536;2023-02-12T23:27:14;50.73;40.92;68.25;;
51665;Laerm;37751;52.408;12.536;2023-02-12T23:29:42;52.17;41.03;69.94;;
51665;Laerm;37751;52.408;12.536;2023-02-12T23:32:13;52.53;38.12;68.99;;
51665;Laerm;37751;52.408;12.536;2023-02-12T23:34:41;57.78;41.33;74.06;;
51665;Laerm;37751;52.408;12.536;2023-02-12T23:37:23;50.67;41.13;67.25;;
51665;Laerm;37751;52.408;12.536;2023-02-12T23:39:56;51.48;41.23;67.20;;
51665;Laerm;37751;52.408;12.536;2023-02-12T23:42:32;54.03;42.81;70.92;;
51665;Laerm;37751;52.408;12.536;2023-02-12T23:45:35;52.39;41.03;70.80;;
51665;Laerm;37751;52.408;12.536;2023-02-12T23:48:04;54.94;41.62;70.69;;
51665;Laerm;37751;52.408;12.536;2023-02-12T23:53:33;51.76;41.43;69.05;;
51665;Laerm;37751;52.408;12.536;2023-02-12T23:56:06;48.74;42.30;63.56;;
51665;Laerm;37751;52.408;12.536;2023-02-12T23:58:54;52.62;39.95;71.73;;
